createdAt,value
2023-03-07T00:00:02.286Z,3.50
2023-03-07T00:02:31.754Z,3.50
2023-03-07T00:04:58.472Z,3.50
2023-03-07T00:07:25.092Z,3.40
2023-03-07T00:09:51.731Z,3.50
2023-03-07T00:12:18.358Z,3.50
2023-03-07T00:14:45.019Z,3.40
2023-03-07T00:17:11.596Z,3.40
2023-03-07T00:19:38.260Z,3.40
2023-03-07T00:22:05.076Z,3.40
2023-03-07T00:24:31.750Z,3.30
2023-03-07T00:26:58.373Z,3.30
2023-03-07T00:29:25.145Z,3.30
2023-03-07T00:31:51.889Z,3.30
2023-03-07T00:34:18.628Z,3.30
2023-03-07T00:36:45.204Z,3.30
2023-03-07T00:39:11.905Z,3.30
2023-03-07T00:41:38.588Z,3.30
2023-03-07T00:44:05.170Z,3.20
2023-03-07T00:46:31.809Z,3.30
2023-03-07T00:48:58.454Z,3.20
2023-03-07T00:51:25.318Z,3.20
2023-03-07T00:53:52.403Z,3.10
2023-03-07T00:56:20.200Z,3.20
2023-03-07T00:58:47.930Z,3.20
2023-03-07T01:01:16.162Z,3.20
2023-03-07T01:03:43.621Z,3.20
2023-03-07T01:06:14.523Z,3.20
2023-03-07T01:08:41.308Z,3.20
2023-03-07T01:11:08.213Z,3.20
2023-03-07T01:13:35.305Z,3.00
2023-03-07T01:16:10.378Z,3.00
2023-03-07T01:18:37.359Z,2.90
2023-03-07T01:21:15.111Z,2.90
2023-03-07T01:23:42.109Z,2.90
2023-03-07T01:26:14.187Z,2.80
2023-03-07T01:28:41.177Z,2.80
2023-03-07T01:31:08.002Z,2.80
2023-03-07T01:33:35.185Z,2.80
2023-03-07T01:36:02.144Z,2.80
2023-03-07T01:38:34.193Z,2.80
2023-03-07T01:41:04.186Z,2.80
2023-03-07T01:43:34.440Z,2.80
2023-03-07T01:46:15.462Z,2.80
2023-03-07T01:48:42.424Z,2.80
2023-03-07T01:51:09.136Z,2.90
2023-03-07T01:53:35.965Z,2.90
2023-03-07T01:56:02.948Z,2.90
2023-03-07T01:58:30.202Z,3.00
2023-03-07T02:00:56.925Z,3.00
2023-03-07T02:03:30.479Z,3.00
2023-03-07T02:05:58.833Z,3.10
2023-03-07T02:08:27.581Z,3.10
2023-03-07T02:10:54.982Z,3.10
2023-03-07T02:13:21.763Z,3.10
2023-03-07T02:15:50.420Z,3.20
2023-03-07T02:18:19.188Z,3.20
2023-03-07T02:20:56.160Z,3.10
2023-03-07T02:23:32.101Z,3.20
2023-03-07T02:26:03.252Z,3.20
2023-03-07T02:28:30.629Z,3.20
2023-03-07T02:30:58.541Z,3.30
2023-03-07T02:33:28.709Z,3.30
2023-03-07T02:36:06.495Z,3.30
2023-03-07T02:38:37.955Z,3.30
2023-03-07T02:41:05.926Z,3.20
2023-03-07T02:43:35.149Z,3.30
2023-03-07T02:46:03.402Z,3.30
2023-03-07T02:48:30.058Z,3.30
2023-03-07T02:50:57.277Z,3.30
2023-03-07T02:53:24.093Z,3.30
2023-03-07T02:55:51.001Z,3.20
2023-03-07T02:58:18.346Z,3.20
2023-03-07T03:00:45.243Z,3.20
2023-03-07T03:03:12.026Z,3.30
2023-03-07T03:05:40.365Z,3.30
2023-03-07T03:08:07.202Z,3.30
2023-03-07T03:10:33.889Z,3.40
2023-03-07T03:13:01.213Z,3.40
2023-03-07T03:15:27.927Z,3.40
2023-03-07T03:17:54.942Z,3.40
2023-03-07T03:20:21.731Z,3.50
2023-03-07T03:22:51.140Z,3.50
2023-03-07T03:25:18.058Z,3.50
2023-03-07T03:27:45.101Z,3.40
2023-03-07T03:30:13.098Z,3.40
2023-03-07T03:32:41.160Z,3.40
2023-03-07T03:35:10.505Z,3.50
2023-03-07T03:37:37.539Z,3.50
2023-03-07T03:40:11.791Z,3.60
2023-03-07T03:42:38.575Z,3.60
2023-03-07T03:45:06.176Z,3.50
2023-03-07T03:47:33.362Z,3.60
2023-03-07T03:50:00.176Z,3.50
2023-03-07T03:52:27.093Z,3.60
2023-03-07T03:54:54.489Z,3.50
2023-03-07T03:57:21.228Z,3.60
2023-03-07T03:59:47.942Z,3.60
2023-03-07T04:02:16.391Z,3.60
2023-03-07T04:04:43.162Z,3.50
2023-03-07T04:07:09.861Z,3.50
2023-03-07T04:09:36.512Z,3.60
2023-03-07T04:12:03.739Z,3.60
2023-03-07T04:14:30.568Z,3.60
2023-03-07T04:16:57.529Z,3.60
2023-03-07T04:19:24.323Z,3.70
2023-03-07T04:21:51.438Z,3.60
2023-03-07T04:24:18.158Z,3.60
2023-03-07T04:26:44.874Z,3.60
2023-03-07T04:29:11.785Z,3.70
2023-03-07T04:31:43.469Z,3.60
2023-03-07T04:34:11.155Z,3.60
2023-03-07T04:36:37.828Z,3.60
2023-03-07T04:39:05.347Z,3.60
2023-03-07T04:41:32.842Z,3.60
2023-03-07T04:44:17.006Z,3.60
2023-03-07T04:46:43.685Z,3.50
2023-03-07T04:49:10.398Z,3.60
2023-03-07T04:51:37.164Z,3.60
2023-03-07T04:54:05.088Z,3.70
2023-03-07T04:56:31.932Z,3.70
2023-03-07T04:58:59.254Z,3.60
2023-03-07T05:01:26.022Z,3.70
2023-03-07T05:03:52.981Z,3.60
2023-03-07T05:06:21.128Z,3.70
2023-03-07T05:08:50.315Z,3.60
2023-03-07T05:11:17.305Z,3.60
2023-03-07T05:13:44.453Z,3.70
2023-03-07T05:16:17.564Z,3.70
2023-03-07T05:18:44.456Z,3.70
2023-03-07T05:21:11.272Z,3.70
2023-03-07T05:23:39.206Z,3.70
2023-03-07T05:26:09.690Z,3.70
2023-03-07T05:28:37.243Z,3.70
2023-03-07T05:31:04.155Z,3.80
2023-03-07T05:33:31.866Z,3.70
2023-03-07T05:35:59.484Z,3.70
2023-03-07T05:38:26.325Z,3.70
2023-03-07T05:40:53.107Z,3.80
2023-03-07T05:43:19.827Z,3.80
2023-03-07T05:45:46.605Z,3.80
2023-03-07T05:48:13.407Z,3.70
2023-03-07T05:50:41.965Z,3.80
2023-03-07T05:53:08.813Z,3.80
2023-03-07T05:55:35.533Z,3.70
2023-03-07T05:58:02.504Z,3.70
2023-03-07T06:00:29.254Z,3.80
2023-03-07T06:03:04.217Z,3.70
2023-03-07T06:05:31.968Z,3.80
2023-03-07T06:07:58.723Z,3.70
2023-03-07T06:10:25.853Z,3.60
2023-03-07T06:12:53.476Z,3.50
2023-03-07T06:15:20.734Z,3.50
2023-03-07T06:17:50.417Z,3.40
2023-03-07T06:20:20.753Z,3.40
2023-03-07T06:22:48.255Z,3.40
2023-03-07T06:25:16.871Z,3.30
2023-03-07T06:27:43.934Z,3.30
2023-03-07T06:30:11.169Z,3.30
2023-03-07T06:32:37.887Z,3.30
2023-03-07T06:35:06.523Z,3.20
2023-03-07T06:37:33.634Z,3.20
2023-03-07T06:40:06.035Z,3.30
2023-03-07T06:42:35.234Z,3.30
2023-03-07T06:45:02.216Z,3.40
2023-03-07T06:47:29.498Z,3.30
2023-03-07T06:49:56.627Z,3.40
2023-03-07T06:52:23.732Z,3.40
2023-03-07T06:54:50.986Z,3.40
2023-03-07T06:57:17.680Z,3.40
2023-03-07T06:59:44.872Z,3.40
2023-03-07T07:02:13.399Z,3.60
2023-03-07T07:04:40.293Z,3.60
2023-03-07T07:07:09.919Z,3.60
2023-03-07T07:09:36.723Z,3.60
2023-03-07T07:12:05.327Z,3.70
2023-03-07T07:14:34.507Z,3.80
2023-03-07T07:17:01.375Z,3.80
2023-03-07T07:19:28.150Z,3.90
2023-03-07T07:21:57.136Z,3.90
2023-03-07T07:24:24.107Z,4.00
2023-03-07T07:26:52.603Z,4.00
2023-03-07T07:29:19.569Z,4.00
2023-03-07T07:31:49.569Z,4.20
2023-03-07T07:34:18.324Z,4.20
2023-03-07T07:36:45.229Z,4.20
2023-03-07T07:39:12.650Z,4.30
2023-03-07T07:41:42.515Z,4.40
2023-03-07T07:44:09.854Z,4.60
2023-03-07T07:46:44.138Z,4.60
2023-03-07T07:49:11.204Z,4.70
2023-03-07T07:51:39.796Z,4.90
2023-03-07T07:54:07.051Z,5.00
2023-03-07T07:56:33.748Z,5.20
2023-03-07T07:59:00.371Z,5.10
2023-03-07T08:01:29.255Z,5.30
2023-03-07T08:03:55.987Z,5.50
2023-03-07T08:06:24.615Z,5.70
2023-03-07T08:08:51.799Z,5.80
2023-03-07T08:11:30.791Z,6.00
2023-03-07T08:13:57.494Z,6.20
2023-03-07T08:16:24.256Z,6.00
2023-03-07T08:18:55.925Z,6.20
2023-03-07T08:21:23.704Z,6.50
2023-03-07T08:23:50.486Z,6.70
2023-03-07T08:26:17.695Z,6.80
2023-03-07T08:28:44.533Z,7.00
2023-03-07T08:31:13.085Z,7.10
2023-03-07T08:33:39.954Z,7.00
2023-03-07T08:36:07.097Z,6.90
2023-03-07T08:38:34.065Z,6.90
2023-03-07T08:41:01.617Z,6.80
2023-03-07T08:43:29.144Z,6.80
2023-03-07T08:45:56.287Z,6.70
2023-03-07T08:48:23.468Z,6.70
2023-03-07T08:50:50.239Z,6.60
2023-03-07T08:53:17.234Z,6.50
2023-03-07T08:55:43.950Z,6.60
2023-03-07T08:58:10.656Z,6.70
2023-03-07T09:00:37.948Z,6.80
2023-03-07T09:03:05.510Z,6.80
2023-03-07T09:05:32.364Z,7.00
2023-03-07T09:07:59.045Z,7.10
2023-03-07T09:10:27.257Z,7.20
2023-03-07T09:12:55.246Z,7.30
2023-03-07T09:15:22.487Z,7.40
2023-03-07T09:17:49.214Z,7.70
2023-03-07T09:20:16.312Z,7.90
2023-03-07T09:22:42.995Z,7.80
2023-03-07T09:25:10.176Z,7.90
2023-03-07T09:27:36.919Z,7.80
2023-03-07T09:30:04.021Z,7.90
2023-03-07T09:32:32.496Z,7.80
2023-03-07T09:34:59.252Z,7.80
2023-03-07T09:37:25.932Z,7.90
2023-03-07T09:39:52.642Z,8.00
2023-03-07T09:42:24.169Z,7.80
2023-03-07T09:44:50.849Z,7.70
2023-03-07T09:47:39.481Z,7.70
2023-03-07T09:50:32.608Z,7.60
2023-03-07T09:53:01.283Z,7.60
2023-03-07T09:55:29.766Z,7.90
2023-03-07T09:57:58.557Z,7.80
2023-03-07T10:00:36.570Z,7.70
2023-03-07T10:03:33.565Z,7.70
2023-03-07T10:06:03.274Z,7.50
2023-03-07T10:08:31.593Z,7.60
2023-03-07T10:11:07.339Z,7.60
2023-03-07T10:13:34.002Z,7.70
2023-03-07T10:16:02.791Z,7.70
2023-03-07T10:18:44.745Z,7.80
2023-03-07T10:21:30.207Z,7.50
2023-03-07T10:23:56.807Z,7.30
2023-03-07T10:26:32.347Z,7.30
2023-03-07T10:29:01.301Z,7.30
2023-03-07T10:31:32.113Z,7.30
2023-03-07T10:33:58.977Z,7.40
2023-03-07T10:36:38.501Z,7.30
2023-03-07T10:39:22.370Z,7.40
2023-03-07T10:41:49.233Z,7.40
2023-03-07T10:44:17.661Z,7.60
2023-03-07T10:46:55.209Z,8.10
2023-03-07T10:49:25.297Z,9.90
2023-03-07T10:52:02.128Z,11.00
2023-03-07T10:54:31.706Z,10.90
2023-03-07T10:57:04.686Z,11.70
2023-03-07T10:59:31.549Z,12.90
2023-03-07T11:01:59.212Z,12.30
2023-03-07T11:04:28.078Z,12.30
2023-03-07T11:06:56.197Z,12.10
2023-03-07T11:09:30.224Z,11.60
2023-03-07T11:11:58.454Z,11.00
2023-03-07T11:14:26.839Z,10.80
2023-03-07T11:16:55.711Z,10.20
2023-03-07T11:19:36.722Z,9.80
2023-03-07T11:22:05.224Z,9.30
2023-03-07T11:24:36.078Z,9.60
2023-03-07T11:27:03.669Z,10.10
2023-03-07T11:29:33.526Z,10.40
2023-03-07T11:32:05.378Z,10.30
2023-03-07T11:34:35.417Z,9.90
2023-03-07T11:37:23.712Z,9.60
2023-03-07T11:39:56.433Z,9.40
2023-03-07T11:42:43.843Z,9.50
2023-03-07T11:45:19.782Z,9.60
2023-03-07T11:48:00.120Z,9.30
2023-03-07T11:50:29.348Z,9.20
2023-03-07T11:53:14.808Z,9.10
2023-03-07T11:55:44.142Z,8.90
2023-03-07T11:58:29.401Z,8.70
2023-03-07T12:00:59.027Z,8.70
2023-03-07T12:03:25.661Z,8.60
2023-03-07T12:06:10.733Z,8.50
2023-03-07T12:08:46.566Z,8.60
2023-03-07T12:11:42.908Z,8.30
2023-03-07T12:14:18.763Z,8.30
2023-03-07T12:16:45.794Z,8.20
2023-03-07T12:19:24.593Z,8.10
2023-03-07T12:22:06.399Z,8.10
2023-03-07T12:24:37.590Z,8.10
2023-03-07T12:27:10.437Z,8.10
2023-03-07T12:29:37.086Z,8.00
2023-03-07T12:32:07.746Z,8.00
2023-03-07T12:34:38.398Z,8.10
2023-03-07T12:37:06.846Z,8.30
2023-03-07T12:39:36.430Z,8.50
2023-03-07T12:42:04.825Z,8.90
2023-03-07T12:44:50.305Z,9.20
2023-03-07T12:47:21.803Z,9.00
2023-03-07T12:50:00.111Z,8.80
2023-03-07T12:52:45.139Z,8.70
2023-03-07T12:55:17.878Z,8.60
2023-03-07T12:57:46.458Z,8.50
2023-03-07T13:00:14.557Z,8.40
2023-03-07T13:02:49.451Z,8.40
2023-03-07T13:05:18.219Z,8.40
2023-03-07T13:07:45.536Z,8.30
2023-03-07T13:10:14.709Z,8.30
2023-03-07T13:12:41.374Z,8.30
2023-03-07T13:15:25.386Z,8.20
2023-03-07T13:17:52.099Z,8.20
2023-03-07T13:20:27.801Z,8.30
2023-03-07T13:22:54.466Z,8.10
2023-03-07T13:25:21.359Z,8.10
2023-03-07T13:27:51.313Z,8.00
2023-03-07T13:30:21.535Z,8.00
2023-03-07T13:32:48.150Z,8.00
2023-03-07T13:35:24.064Z,8.10
2023-03-07T13:37:51.795Z,8.30
2023-03-07T13:40:26.485Z,8.40
2023-03-07T13:42:53.182Z,8.30
2023-03-07T13:45:38.466Z,8.40
2023-03-07T13:48:12.636Z,8.30
2023-03-07T13:50:59.247Z,8.20
2023-03-07T13:53:35.105Z,8.20
2023-03-07T13:56:17.464Z,8.30
2023-03-07T13:58:49.678Z,8.20
2023-03-07T14:01:20.729Z,8.20
2023-03-07T14:04:04.672Z,8.00
2023-03-07T14:06:31.348Z,7.90
2023-03-07T14:09:01.455Z,7.90
2023-03-07T14:11:36.594Z,7.80
2023-03-07T14:14:15.849Z,7.80
2023-03-07T14:16:42.589Z,7.80
2023-03-07T14:19:15.285Z,7.90
2023-03-07T14:21:54.233Z,8.20
2023-03-07T14:24:25.454Z,8.40
2023-03-07T14:26:55.260Z,8.50
2023-03-07T14:29:26.006Z,8.90
2023-03-07T14:31:54.012Z,9.40
2023-03-07T14:34:34.081Z,9.30
2023-03-07T14:37:08.813Z,9.30
2023-03-07T14:39:54.325Z,9.20
2023-03-07T14:42:25.131Z,9.10
2023-03-07T14:45:16.113Z,8.80
2023-03-07T14:47:45.659Z,8.50
2023-03-07T14:50:12.520Z,8.30
2023-03-07T14:52:40.045Z,8.30
2023-03-07T14:55:06.964Z,8.20
2023-03-07T14:57:36.626Z,7.90
2023-03-07T15:00:03.383Z,7.90
2023-03-07T15:02:30.036Z,7.80
2023-03-07T15:04:56.677Z,8.00
2023-03-07T15:07:23.428Z,7.90
2023-03-07T15:09:50.125Z,7.90
2023-03-07T15:12:19.528Z,8.00
2023-03-07T15:14:54.241Z,8.00
2023-03-07T15:17:23.421Z,8.20
2023-03-07T15:19:53.021Z,8.20
2023-03-07T15:22:24.875Z,8.20
2023-03-07T15:24:54.513Z,8.10
2023-03-07T15:27:30.591Z,8.00
2023-03-07T15:29:58.884Z,8.10
2023-03-07T15:32:41.142Z,8.20
2023-03-07T15:35:07.992Z,8.20
2023-03-07T15:37:54.585Z,8.20
2023-03-07T15:40:24.194Z,8.10
2023-03-07T15:42:52.261Z,8.00
2023-03-07T15:45:34.230Z,8.00
2023-03-07T15:48:11.987Z,8.00
2023-03-07T15:50:38.900Z,7.80
2023-03-07T15:53:08.134Z,7.80
2023-03-07T15:55:35.749Z,7.70
2023-03-07T15:58:04.100Z,7.60
2023-03-07T16:00:38.274Z,7.60
2023-03-07T16:03:13.803Z,7.60
2023-03-07T16:05:40.925Z,7.50
2023-03-07T16:08:12.178Z,7.40
2023-03-07T16:10:40.408Z,7.40
2023-03-07T16:13:09.379Z,7.30
2023-03-07T16:15:36.005Z,7.30
2023-03-07T16:18:04.744Z,7.20
2023-03-07T16:20:31.461Z,7.20
2023-03-07T16:22:58.166Z,7.20
2023-03-07T16:25:26.264Z,7.10
2023-03-07T16:27:54.248Z,7.10
2023-03-07T16:30:22.525Z,7.00
2023-03-07T16:32:49.463Z,6.90
2023-03-07T16:35:19.430Z,6.90
2023-03-07T16:37:46.773Z,6.80
2023-03-07T16:40:14.767Z,6.70
2023-03-07T16:42:43.225Z,6.60
2023-03-07T16:45:16.096Z,6.60
2023-03-07T16:47:42.827Z,6.60
2023-03-07T16:50:13.478Z,6.60
2023-03-07T16:52:40.124Z,6.50
2023-03-07T16:55:07.006Z,6.50
2023-03-07T16:57:34.131Z,6.50
2023-03-07T17:00:00.932Z,6.40
2023-03-07T17:02:27.673Z,6.40
2023-03-07T17:04:54.327Z,6.40
2023-03-07T17:07:24.519Z,6.30
2023-03-07T17:09:51.159Z,6.30
2023-03-07T17:12:20.400Z,6.30
2023-03-07T17:14:47.163Z,6.40
2023-03-07T17:17:18.439Z,6.20
2023-03-07T17:19:45.119Z,6.30
2023-03-07T17:22:11.754Z,6.30
2023-03-07T17:24:38.470Z,6.40
2023-03-07T17:27:05.554Z,6.40
2023-03-07T17:29:40.198Z,6.30
2023-03-07T17:32:07.437Z,6.30
2023-03-07T17:34:34.930Z,6.30
2023-03-07T17:37:01.785Z,6.30
2023-03-07T17:39:29.672Z,6.40
2023-03-07T17:41:56.934Z,6.40
2023-03-07T17:44:25.456Z,6.40
2023-03-07T17:46:52.350Z,6.50
2023-03-07T17:49:22.940Z,6.50
2023-03-07T17:51:49.941Z,6.50
2023-03-07T17:54:16.866Z,6.40
2023-03-07T17:56:43.511Z,6.50
2023-03-07T17:59:10.173Z,6.50
2023-03-07T18:01:37.043Z,6.50
2023-03-07T18:04:04.834Z,6.50
2023-03-07T18:06:33.927Z,6.50
2023-03-07T18:09:01.542Z,6.60
2023-03-07T18:11:29.043Z,6.50
2023-03-07T18:13:55.857Z,6.60
2023-03-07T18:16:23.080Z,6.60
2023-03-07T18:18:58.695Z,6.50
2023-03-07T18:21:32.648Z,6.50
2023-03-07T18:23:59.248Z,6.50
2023-03-07T18:26:25.935Z,6.50
2023-03-07T18:28:53.683Z,6.60
2023-03-07T18:31:22.100Z,6.60
2023-03-07T18:33:50.800Z,6.60
2023-03-07T18:36:17.652Z,6.60
2023-03-07T18:38:44.735Z,6.70
2023-03-07T18:41:15.790Z,6.60
2023-03-07T18:43:42.860Z,6.70
2023-03-07T18:46:10.758Z,6.70
2023-03-07T18:48:37.562Z,6.70
2023-03-07T18:51:05.846Z,6.70
2023-03-07T18:53:33.302Z,6.80
2023-03-07T18:56:07.404Z,6.80
2023-03-07T18:58:34.123Z,6.80
2023-03-07T19:01:20.807Z,6.80
2023-03-07T19:03:48.586Z,6.80
2023-03-07T19:06:16.212Z,6.80
2023-03-07T19:08:43.041Z,6.80
2023-03-07T19:11:12.031Z,6.80
2023-03-07T19:13:42.358Z,6.80
2023-03-07T19:16:11.953Z,6.80
2023-03-07T19:18:38.796Z,6.80
2023-03-07T19:21:10.060Z,6.80
2023-03-07T19:23:36.988Z,6.80
2023-03-07T19:26:04.828Z,6.80
2023-03-07T19:28:31.762Z,6.80
2023-03-07T19:31:05.215Z,6.80
2023-03-07T19:33:31.967Z,6.80
2023-03-07T19:36:02.770Z,6.80
2023-03-07T19:38:29.469Z,6.80
2023-03-07T19:40:56.974Z,6.80
2023-03-07T19:43:23.669Z,6.80
2023-03-07T19:45:50.685Z,6.70
2023-03-07T19:48:17.387Z,6.70
2023-03-07T19:50:44.035Z,6.80
2023-03-07T19:53:10.656Z,6.70
2023-03-07T19:55:37.278Z,6.70
2023-03-07T19:58:03.914Z,6.80
2023-03-07T20:00:30.586Z,6.80
2023-03-07T20:02:57.317Z,6.80
2023-03-07T20:05:24.224Z,6.70
2023-03-07T20:07:50.973Z,6.70
2023-03-07T20:10:17.788Z,6.70
2023-03-07T20:12:44.403Z,6.70
2023-03-07T20:15:12.324Z,6.70
2023-03-07T20:17:38.996Z,6.70
2023-03-07T20:20:07.959Z,6.70
2023-03-07T20:22:34.702Z,6.60
2023-03-07T20:25:01.391Z,6.70
2023-03-07T20:27:28.048Z,6.60
2023-03-07T20:29:55.394Z,6.70
2023-03-07T20:32:21.990Z,6.60
2023-03-07T20:34:56.282Z,6.60
2023-03-07T20:37:22.964Z,6.50
2023-03-07T20:39:49.635Z,6.60
2023-03-07T20:42:16.615Z,6.60
2023-03-07T20:44:43.290Z,6.60
2023-03-07T20:47:09.925Z,6.60
2023-03-07T20:49:36.516Z,6.60
2023-03-07T20:52:03.252Z,6.70
2023-03-07T20:54:29.924Z,6.60
2023-03-07T20:56:56.556Z,6.60
2023-03-07T20:59:23.592Z,6.60
2023-03-07T21:01:50.381Z,6.60
2023-03-07T21:04:19.920Z,6.60
2023-03-07T21:06:47.694Z,6.70
2023-03-07T21:09:15.600Z,6.70
2023-03-07T21:11:46.522Z,6.70
2023-03-07T21:14:13.845Z,6.70
2023-03-07T21:16:40.539Z,6.70
2023-03-07T21:19:07.794Z,6.70
2023-03-07T21:21:35.084Z,6.70
2023-03-07T21:24:01.716Z,6.70
2023-03-07T21:26:29.518Z,6.70
2023-03-07T21:28:56.953Z,6.70
2023-03-07T21:31:28.127Z,6.70
2023-03-07T21:33:56.420Z,6.70
2023-03-07T21:36:23.982Z,6.60
2023-03-07T21:38:50.626Z,6.60
2023-03-07T21:41:19.009Z,6.60
2023-03-07T21:43:45.703Z,6.60
2023-03-07T21:46:13.334Z,6.50
2023-03-07T21:48:40.349Z,6.40
2023-03-07T21:51:07.900Z,6.30
2023-03-07T21:53:35.215Z,6.10
2023-03-07T21:56:06.057Z,6.00
2023-03-07T21:58:33.126Z,5.90
2023-03-07T22:00:59.982Z,5.80
2023-03-07T22:03:27.556Z,5.70
2023-03-07T22:05:56.300Z,5.60
2023-03-07T22:08:24.093Z,5.60
2023-03-07T22:10:57.956Z,5.40
2023-03-07T22:13:24.570Z,5.40
2023-03-07T22:15:54.863Z,5.30
2023-03-07T22:18:21.439Z,5.30
2023-03-07T22:20:48.369Z,5.20
2023-03-07T22:23:14.958Z,5.00
2023-03-07T22:25:41.548Z,4.90
2023-03-07T22:28:08.139Z,4.90
2023-03-07T22:30:34.777Z,4.90
2023-03-07T22:33:01.340Z,4.80
2023-03-07T22:35:28.005Z,4.80
2023-03-07T22:37:54.773Z,4.70
2023-03-07T22:40:21.494Z,4.60
2023-03-07T22:42:48.109Z,4.60
2023-03-07T22:45:14.692Z,4.50
2023-03-07T22:47:41.260Z,4.50
2023-03-07T22:50:08.229Z,4.40
2023-03-07T22:52:34.871Z,4.40
2023-03-07T22:55:01.522Z,4.40
2023-03-07T22:57:28.117Z,4.40
2023-03-07T22:59:54.728Z,4.40
2023-03-07T23:02:21.359Z,4.50
2023-03-07T23:04:50.666Z,4.40
2023-03-07T23:07:17.412Z,4.40
2023-03-07T23:09:44.355Z,4.40
2023-03-07T23:12:11.332Z,4.40
2023-03-07T23:14:37.962Z,4.30
2023-03-07T23:17:04.640Z,4.40
2023-03-07T23:19:31.696Z,4.40
2023-03-07T23:21:58.434Z,4.30
2023-03-07T23:24:25.093Z,4.30
2023-03-07T23:26:51.719Z,4.30
2023-03-07T23:29:18.352Z,4.20
2023-03-07T23:31:44.964Z,4.20
2023-03-07T23:34:16.085Z,4.20
2023-03-07T23:36:42.924Z,4.20
2023-03-07T23:39:09.805Z,4.20
2023-03-07T23:41:36.621Z,4.20
2023-03-07T23:44:03.325Z,4.10
2023-03-07T23:46:30.661Z,4.10
2023-03-07T23:48:57.473Z,4.10
2023-03-07T23:51:24.536Z,4.10
2023-03-07T23:53:51.281Z,4.10
2023-03-07T23:56:17.931Z,4.00
2023-03-07T23:58:47.342Z,4.00
